createdAt,value
2022-12-07T00:01:29.102Z,83.72
2022-12-07T00:04:14.257Z,84.18
2022-12-07T00:06:57.245Z,83.63
2022-12-07T00:09:42.731Z,84.06
2022-12-07T00:12:25.775Z,83.07
2022-12-07T00:15:09.806Z,84.25
2022-12-07T00:17:52.907Z,83.51
2022-12-07T00:20:35.951Z,84.31
2022-12-07T00:23:19.005Z,85.21
2022-12-07T00:26:08.005Z,84.95
2022-12-07T00:28:52.296Z,84.74
2022-12-07T00:31:39.979Z,85.53
2022-12-07T00:34:23.839Z,85.31
2022-12-07T00:37:06.897Z,84.73
2022-12-07T00:39:50.019Z,84.06
2022-12-07T00:42:34.542Z,84.07
2022-12-07T00:45:17.799Z,84.19
2022-12-07T00:48:00.799Z,83.43
2022-12-07T00:50:43.859Z,83.84
2022-12-07T00:53:28.423Z,83.40
2022-12-07T00:56:14.588Z,83.67
2022-12-07T00:59:00.537Z,82.58
2022-12-07T01:01:43.802Z,82.44
2022-12-07T01:04:26.914Z,82.44
2022-12-07T01:07:09.980Z,82.26
2022-12-07T01:09:52.968Z,83.59
2022-12-07T01:12:35.986Z,83.53
2022-12-07T01:15:20.628Z,83.54
2022-12-07T01:18:03.673Z,82.98
2022-12-07T01:20:46.740Z,82.58
2022-12-07T01:23:30.565Z,82.21
2022-12-07T01:26:15.466Z,82.10
2022-12-07T01:29:00.189Z,82.54
2022-12-07T01:31:44.742Z,83.19
2022-12-07T01:34:27.818Z,83.36
2022-12-07T01:37:10.811Z,82.80
2022-12-07T01:39:54.437Z,82.41
2022-12-07T01:42:37.506Z,82.17
2022-12-07T01:45:41.158Z,81.72
2022-12-07T01:48:29.888Z,81.33
2022-12-07T01:51:15.890Z,82.06
2022-12-07T01:53:59.008Z,81.80
2022-12-07T01:56:45.237Z,81.90
2022-12-07T01:59:28.705Z,82.43
2022-12-07T02:02:21.022Z,82.22
2022-12-07T02:05:07.836Z,81.97
2022-12-07T02:07:53.208Z,81.75
2022-12-07T02:10:36.362Z,81.74
2022-12-07T02:13:22.228Z,82.35
2022-12-07T02:16:15.699Z,82.11
2022-12-07T02:19:14.397Z,82.77
2022-12-07T02:22:08.432Z,82.34
2022-12-07T02:24:57.684Z,82.08
2022-12-07T02:27:48.225Z,82.24
2022-12-07T02:30:36.383Z,82.90
2022-12-07T02:33:26.838Z,82.36
2022-12-07T02:36:15.520Z,82.63
2022-12-07T02:39:03.308Z,82.06
2022-12-07T02:41:50.710Z,82.22
2022-12-07T02:44:35.196Z,82.73
2022-12-07T02:47:22.357Z,82.46
2022-12-07T02:50:07.118Z,83.39
2022-12-07T02:52:50.406Z,83.09
2022-12-07T02:55:40.852Z,83.23
2022-12-07T02:58:35.019Z,82.52
2022-12-07T03:01:29.629Z,82.40
2022-12-07T03:04:28.584Z,83.03
2022-12-07T03:07:20.809Z,82.71
2022-12-07T03:10:11.237Z,83.36
2022-12-07T03:13:04.450Z,84.10
2022-12-07T03:15:56.999Z,84.19
2022-12-07T03:18:44.058Z,84.59
2022-12-07T03:21:33.621Z,84.14
2022-12-07T03:24:19.726Z,85.33
2022-12-07T03:27:09.079Z,84.85
2022-12-07T03:29:57.104Z,84.14
2022-12-07T03:32:43.776Z,84.51
2022-12-07T03:35:31.053Z,84.83
2022-12-07T03:38:19.625Z,85.41
2022-12-07T03:41:08.753Z,84.97
2022-12-07T03:43:52.140Z,85.38
2022-12-07T03:46:45.232Z,85.52
2022-12-07T03:49:33.442Z,84.30
2022-12-07T03:52:25.037Z,84.57
2022-12-07T03:55:13.515Z,83.66
2022-12-07T03:58:01.414Z,84.15
2022-12-07T04:00:45.480Z,83.53
2022-12-07T04:03:28.495Z,84.29
2022-12-07T04:06:11.607Z,83.33
2022-12-07T04:08:54.701Z,83.77
2022-12-07T04:11:39.125Z,85.62
2022-12-07T04:14:22.164Z,85.20
2022-12-07T04:17:05.351Z,86.33
2022-12-07T04:19:48.370Z,85.65
2022-12-07T04:22:31.481Z,84.62
2022-12-07T04:25:14.699Z,85.13
2022-12-07T04:27:59.090Z,85.85
2022-12-07T04:30:42.142Z,84.88
2022-12-07T04:33:25.202Z,85.31
2022-12-07T04:36:08.837Z,85.53
2022-12-07T04:38:52.062Z,85.09
2022-12-07T04:41:35.524Z,85.74
2022-12-07T04:44:20.868Z,84.74
2022-12-07T04:47:04.216Z,84.11
2022-12-07T04:49:47.443Z,83.79
2022-12-07T04:52:30.659Z,83.23
2022-12-07T04:55:13.889Z,83.48
2022-12-07T04:57:57.009Z,83.67
2022-12-07T05:00:42.106Z,83.89
2022-12-07T05:03:25.158Z,83.44
2022-12-07T05:06:13.211Z,83.28
2022-12-07T05:08:56.982Z,83.66
2022-12-07T05:11:40.090Z,83.72
2022-12-07T05:14:23.545Z,83.80
2022-12-07T05:17:08.042Z,85.13
2022-12-07T05:19:51.114Z,85.65
2022-12-07T05:22:34.230Z,86.86
2022-12-07T05:25:17.455Z,86.71
2022-12-07T05:28:00.732Z,85.96
2022-12-07T05:30:43.804Z,85.86
2022-12-07T05:33:28.327Z,86.42
2022-12-07T05:36:11.453Z,85.65
2022-12-07T05:38:54.678Z,85.34
2022-12-07T05:41:54.914Z,85.49
2022-12-07T05:44:37.972Z,85.83
2022-12-07T05:47:21.026Z,84.96
2022-12-07T05:50:07.326Z,84.99
2022-12-07T05:52:50.374Z,84.23
2022-12-07T05:55:33.475Z,84.43
2022-12-07T05:58:34.048Z,84.51
2022-12-07T06:01:17.131Z,85.87
2022-12-07T06:04:00.205Z,84.67
2022-12-07T06:06:44.764Z,84.54
2022-12-07T06:09:29.643Z,84.56
2022-12-07T06:12:30.977Z,84.31
2022-12-07T06:15:14.556Z,84.41
2022-12-07T06:17:57.596Z,84.14
2022-12-07T06:20:40.717Z,83.39
2022-12-07T06:23:25.181Z,82.57
2022-12-07T06:26:08.286Z,82.34
2022-12-07T06:28:51.410Z,81.68
2022-12-07T06:31:34.828Z,81.18
2022-12-07T06:34:19.595Z,79.98
2022-12-07T06:37:02.676Z,79.77
2022-12-07T06:39:47.300Z,79.66
2022-12-07T06:42:30.306Z,78.32
2022-12-07T06:45:13.400Z,76.77
2022-12-07T06:47:56.505Z,75.58
2022-12-07T06:50:39.680Z,75.76
2022-12-07T06:53:22.722Z,75.33
2022-12-07T06:56:07.964Z,75.06
2022-12-07T06:58:51.547Z,75.33
2022-12-07T07:01:35.999Z,76.28
2022-12-07T07:04:19.131Z,76.23
2022-12-07T07:07:02.233Z,74.37
2022-12-07T07:09:45.299Z,74.46
2022-12-07T07:12:29.781Z,74.36
2022-12-07T07:15:13.280Z,72.42
2022-12-07T07:17:56.340Z,72.06
2022-12-07T07:20:39.979Z,68.93
2022-12-07T07:23:23.667Z,67.57
2022-12-07T07:26:06.813Z,67.13
2022-12-07T07:28:51.255Z,67.69
2022-12-07T07:31:36.477Z,68.14
2022-12-07T07:34:19.737Z,70.88
2022-12-07T07:37:02.915Z,70.16
2022-12-07T07:39:45.928Z,70.54
2022-12-07T07:42:28.993Z,72.06
2022-12-07T07:45:14.079Z,70.65
2022-12-07T07:47:57.156Z,69.05
2022-12-07T07:50:40.133Z,67.66
2022-12-07T07:53:23.239Z,67.10
2022-12-07T07:56:06.600Z,64.54
2022-12-07T07:58:53.557Z,63.39
2022-12-07T08:01:38.084Z,65.38
2022-12-07T08:04:21.205Z,66.46
2022-12-07T08:07:04.301Z,63.61
2022-12-07T08:09:47.305Z,61.24
2022-12-07T08:12:30.329Z,61.64
2022-12-07T08:15:13.352Z,60.43
2022-12-07T08:17:57.857Z,60.54
2022-12-07T08:20:42.506Z,59.54
2022-12-07T08:23:32.450Z,58.43
2022-12-07T08:26:20.523Z,59.59
2022-12-07T08:29:03.628Z,60.98
2022-12-07T08:31:46.665Z,59.88
2022-12-07T08:34:31.203Z,60.01
2022-12-07T08:37:14.193Z,57.96
2022-12-07T08:39:57.201Z,55.57
2022-12-07T08:42:41.440Z,50.70
2022-12-07T08:45:27.422Z,43.81
2022-12-07T08:48:15.136Z,34.14
2022-12-07T08:51:00.177Z,31.05
2022-12-07T08:53:44.933Z,30.67
2022-12-07T08:56:28.659Z,32.00
2022-12-07T08:59:13.126Z,36.67
2022-12-07T09:01:56.516Z,39.58
2022-12-07T09:04:39.620Z,42.89
2022-12-07T09:07:24.139Z,46.86
2022-12-07T09:10:08.318Z,47.18
2022-12-07T09:12:51.574Z,48.05
2022-12-07T09:15:34.919Z,51.31
2022-12-07T09:18:18.124Z,55.33
2022-12-07T09:21:01.190Z,57.20
2022-12-07T09:23:46.896Z,55.92
2022-12-07T09:26:29.999Z,54.68
2022-12-07T09:29:13.074Z,53.92
2022-12-07T09:31:56.081Z,55.64
2022-12-07T09:34:39.249Z,56.67
2022-12-07T09:37:22.343Z,56.59
2022-12-07T09:40:08.573Z,57.56
2022-12-07T09:42:54.616Z,57.17
2022-12-07T09:45:41.275Z,61.23
2022-12-07T09:48:31.546Z,60.64
2022-12-07T09:51:23.314Z,60.25
2022-12-07T09:54:07.582Z,60.80
2022-12-07T09:56:52.060Z,62.04
2022-12-07T09:59:36.728Z,63.42
2022-12-07T10:02:28.399Z,62.20
2022-12-07T10:05:22.093Z,63.07
2022-12-07T10:08:07.481Z,63.04
2022-12-07T10:10:53.715Z,62.85
2022-12-07T10:13:40.268Z,62.45
2022-12-07T10:16:40.488Z,62.69
2022-12-07T10:19:31.476Z,61.41
2022-12-07T10:22:17.383Z,61.71
2022-12-07T10:25:11.496Z,59.50
2022-12-07T10:28:03.543Z,59.50
2022-12-07T10:30:59.255Z,59.65
2022-12-07T10:33:52.409Z,53.91
2022-12-07T10:36:39.084Z,44.68
2022-12-07T10:39:23.628Z,38.70
2022-12-07T10:42:07.108Z,41.81
2022-12-07T10:44:51.296Z,44.26
2022-12-07T10:47:41.505Z,46.89
2022-12-07T10:50:54.815Z,48.13
2022-12-07T10:54:00.604Z,48.60
2022-12-07T10:57:18.622Z,50.00
2022-12-07T11:00:13.941Z,50.57
2022-12-07T11:03:18.631Z,49.75
2022-12-07T11:06:14.050Z,51.13
2022-12-07T11:09:18.390Z,53.19
2022-12-07T11:12:08.166Z,53.54
2022-12-07T11:14:58.524Z,55.26
2022-12-07T11:17:51.049Z,55.04
2022-12-07T11:20:47.694Z,54.56
2022-12-07T11:23:42.402Z,53.96
2022-12-07T11:26:49.034Z,54.21
2022-12-07T11:29:49.282Z,55.51
2022-12-07T11:32:51.445Z,57.18
2022-12-07T11:35:43.613Z,57.82
2022-12-07T11:38:38.052Z,56.53
2022-12-07T11:41:29.251Z,56.70
2022-12-07T11:44:33.530Z,56.62
2022-12-07T11:47:20.934Z,59.13
2022-12-07T11:50:19.598Z,57.45
2022-12-07T11:53:08.146Z,56.62
2022-12-07T11:55:57.430Z,55.75
2022-12-07T11:58:53.604Z,56.54
2022-12-07T12:01:50.172Z,57.49
2022-12-07T12:04:53.607Z,57.49
2022-12-07T12:10:55.661Z,57.38
2022-12-07T12:17:47.847Z,57.92
2022-12-07T12:20:35.207Z,61.36
2022-12-07T12:23:21.439Z,60.47
2022-12-07T12:26:09.302Z,60.96
2022-12-07T12:28:59.535Z,61.06
2022-12-07T12:31:43.677Z,61.49
2022-12-07T12:34:35.972Z,61.97
2022-12-07T12:37:47.267Z,63.25
2022-12-07T12:40:57.704Z,63.88
2022-12-07T12:43:55.022Z,62.90
2022-12-07T12:46:56.432Z,65.17
2022-12-07T12:49:44.201Z,63.60
2022-12-07T12:52:54.150Z,63.83
2022-12-07T12:56:09.472Z,64.09
2022-12-07T12:59:35.429Z,60.96
2022-12-07T13:02:24.338Z,61.18
2022-12-07T13:05:20.501Z,61.20
2022-12-07T13:08:05.131Z,61.12
2022-12-07T13:10:48.900Z,60.91
2022-12-07T13:13:35.017Z,61.56
2022-12-07T13:16:43.473Z,60.98
2022-12-07T13:20:03.306Z,60.52
2022-12-07T13:22:51.539Z,61.82
2022-12-07T13:25:43.615Z,62.16
2022-12-07T13:28:34.520Z,60.92
2022-12-07T13:31:36.229Z,62.22
2022-12-07T13:34:35.911Z,62.69
2022-12-07T13:37:27.190Z,63.22
2022-12-07T13:40:21.018Z,63.08
2022-12-07T13:43:07.330Z,63.05
2022-12-07T13:45:59.159Z,65.05
2022-12-07T13:48:47.592Z,63.45
2022-12-07T13:51:39.042Z,63.10
2022-12-07T13:54:23.409Z,64.39
2022-12-07T13:57:06.591Z,63.56
2022-12-07T13:59:50.701Z,63.47
2022-12-07T14:02:38.778Z,65.22
2022-12-07T14:05:27.553Z,64.65
2022-12-07T14:08:25.859Z,64.92
2022-12-07T14:11:19.087Z,65.28
2022-12-07T14:14:03.804Z,65.50
2022-12-07T14:16:58.843Z,66.62
2022-12-07T14:19:51.634Z,66.51
2022-12-07T14:22:36.987Z,67.04
2022-12-07T14:25:23.289Z,67.50
2022-12-07T14:28:06.332Z,67.45
2022-12-07T14:30:49.541Z,68.18
2022-12-07T14:33:32.684Z,68.76
2022-12-07T14:36:16.666Z,69.60
2022-12-07T14:39:00.535Z,69.55
2022-12-07T14:41:54.099Z,70.27
2022-12-07T14:44:37.180Z,70.77
2022-12-07T14:50:24.370Z,72.46
2022-12-07T14:56:07.384Z,72.65
2022-12-07T14:58:51.854Z,73.49
2022-12-07T15:01:34.879Z,74.02
2022-12-07T15:04:18.161Z,74.01
2022-12-07T15:07:03.008Z,74.38
2022-12-07T15:09:46.199Z,74.88
2022-12-07T15:12:29.229Z,74.95
2022-12-07T15:15:13.725Z,75.93
2022-12-07T15:17:56.987Z,76.24
2022-12-07T15:20:40.286Z,76.12
2022-12-07T15:23:23.441Z,76.98
2022-12-07T15:26:06.953Z,77.69
2022-12-07T15:28:50.146Z,77.41
2022-12-07T15:34:40.598Z,78.21
2022-12-07T15:37:23.946Z,78.80
2022-12-07T15:40:08.739Z,78.80
2022-12-07T15:42:51.743Z,78.87
2022-12-07T15:45:33.864Z,78.94
2022-12-07T15:48:27.812Z,79.23
2022-12-07T15:51:11.620Z,79.71
2022-12-07T15:53:54.663Z,79.80
2022-12-07T15:56:37.776Z,79.62
2022-12-07T15:59:21.056Z,79.62
2022-12-07T16:02:04.142Z,79.55
2022-12-07T16:04:48.704Z,79.71
2022-12-07T16:07:31.811Z,80.26
2022-12-07T16:10:14.967Z,80.15
2022-12-07T16:12:58.080Z,79.85
2022-12-07T16:15:41.248Z,80.02
2022-12-07T16:18:24.429Z,80.59
2022-12-07T16:21:09.256Z,80.55
2022-12-07T16:23:52.322Z,80.40
2022-12-07T16:26:35.497Z,80.57
2022-12-07T16:29:19.659Z,81.08
2022-12-07T16:32:02.764Z,80.75
2022-12-07T16:34:45.775Z,81.71
2022-12-07T16:37:30.252Z,81.69
2022-12-07T16:40:14.429Z,81.98
2022-12-07T16:42:57.928Z,82.25
2022-12-07T16:45:41.196Z,81.82
2022-12-07T16:48:24.655Z,82.63
2022-12-07T16:51:09.766Z,82.30
2022-12-07T16:53:55.158Z,82.54
2022-12-07T16:56:38.203Z,82.40
2022-12-07T16:59:21.255Z,83.00
2022-12-07T17:02:04.907Z,83.30
2022-12-07T17:04:48.023Z,82.95
2022-12-07T17:07:31.151Z,82.74
2022-12-07T17:10:15.584Z,83.06
2022-12-07T17:12:58.739Z,83.39
2022-12-07T17:15:43.350Z,84.11
2022-12-07T17:18:29.774Z,84.47
2022-12-07T17:21:12.881Z,83.25
2022-12-07T17:23:56.014Z,83.22
2022-12-07T17:26:42.036Z,83.69
2022-12-07T17:29:25.076Z,84.17
2022-12-07T17:32:08.231Z,84.96
2022-12-07T17:34:51.298Z,85.82
2022-12-07T17:37:34.587Z,84.90
2022-12-07T17:40:17.796Z,84.94
2022-12-07T17:43:02.262Z,85.03
2022-12-07T17:45:45.453Z,85.68
2022-12-07T17:48:28.614Z,85.26
2022-12-07T17:51:28.863Z,85.18
2022-12-07T17:54:12.775Z,85.60
2022-12-07T17:56:55.875Z,84.82
2022-12-07T17:59:40.589Z,85.19
2022-12-07T18:02:23.793Z,85.58
2022-12-07T18:05:07.924Z,84.80
2022-12-07T18:07:51.143Z,85.91
2022-12-07T18:10:34.292Z,85.42
2022-12-07T18:13:34.950Z,85.68
2022-12-07T18:16:23.036Z,86.19
2022-12-07T18:19:09.201Z,86.35
2022-12-07T18:21:52.379Z,85.84
2022-12-07T18:24:37.300Z,85.74
2022-12-07T18:27:20.548Z,87.47
2022-12-07T18:30:03.656Z,87.73
2022-12-07T18:32:48.104Z,87.01
2022-12-07T18:35:31.717Z,85.81
2022-12-07T18:38:14.894Z,86.68
2022-12-07T18:40:58.268Z,87.00
2022-12-07T18:43:41.774Z,87.24
2022-12-07T18:46:24.846Z,88.45
2022-12-07T18:49:10.928Z,88.01
2022-12-07T18:51:54.029Z,87.05
2022-12-07T18:54:37.179Z,87.81
2022-12-07T18:57:20.217Z,87.30
2022-12-07T19:00:04.340Z,87.24
2022-12-07T19:02:47.650Z,87.21
2022-12-07T19:05:32.231Z,88.49
2022-12-07T19:08:15.555Z,88.82
2022-12-07T19:11:23.528Z,88.56
2022-12-07T19:14:07.377Z,88.18
2022-12-07T19:16:52.223Z,89.05
2022-12-07T19:19:37.818Z,89.97
2022-12-07T19:22:24.335Z,90.30
2022-12-07T19:25:08.080Z,89.06
2022-12-07T19:27:51.521Z,89.48
2022-12-07T19:30:34.712Z,89.11
2022-12-07T19:33:17.777Z,88.81
2022-12-07T19:36:00.829Z,88.43
2022-12-07T19:38:51.722Z,89.59
2022-12-07T19:41:39.356Z,90.20
2022-12-07T19:44:25.588Z,90.08
2022-12-07T19:47:09.461Z,89.67
2022-12-07T19:49:53.506Z,90.14
2022-12-07T19:52:37.049Z,90.68
2022-12-07T19:55:22.237Z,90.42
2022-12-07T19:58:05.928Z,89.68
2022-12-07T20:00:49.116Z,88.70
2022-12-07T20:03:32.597Z,89.62
2022-12-07T20:06:18.723Z,90.32
2022-12-07T20:09:02.421Z,89.71
2022-12-07T20:12:04.549Z,89.84
2022-12-07T20:14:47.839Z,89.67
2022-12-07T20:17:31.031Z,89.53
2022-12-07T20:20:14.480Z,90.50
2022-12-07T20:22:57.680Z,91.78
2022-12-07T20:25:41.019Z,90.83
2022-12-07T20:28:25.870Z,91.62
2022-12-07T20:31:09.041Z,91.80
2022-12-07T20:33:53.899Z,92.11
2022-12-07T20:36:37.763Z,90.61
2022-12-07T20:39:21.037Z,90.88
2022-12-07T20:42:21.459Z,90.24
2022-12-07T20:45:09.592Z,90.51
2022-12-07T20:47:53.749Z,90.83
2022-12-07T20:50:42.004Z,88.47
2022-12-07T20:53:25.487Z,88.85
2022-12-07T20:56:09.823Z,88.95
2022-12-07T20:58:53.254Z,87.46
2022-12-07T21:01:38.408Z,88.20
2022-12-07T21:04:21.662Z,88.13
2022-12-07T21:07:05.002Z,88.83
2022-12-07T21:09:48.115Z,88.62
2022-12-07T21:12:31.246Z,89.77
2022-12-07T21:15:14.531Z,90.55
2022-12-07T21:18:04.246Z,92.33
2022-12-07T21:20:50.295Z,93.25
2022-12-07T21:23:35.231Z,92.95
2022-12-07T21:26:20.616Z,90.95
2022-12-07T21:29:04.715Z,90.54
2022-12-07T21:31:48.319Z,89.69
2022-12-07T21:34:32.979Z,89.67
2022-12-07T21:37:16.278Z,90.06
2022-12-07T21:39:59.630Z,89.71
2022-12-07T21:42:44.917Z,89.25
2022-12-07T21:45:28.075Z,88.48
2022-12-07T21:48:11.477Z,91.03
2022-12-07T21:50:56.075Z,92.86
2022-12-07T21:53:42.098Z,93.09
2022-12-07T21:56:27.765Z,93.73
2022-12-07T21:59:14.474Z,94.32
2022-12-07T22:01:57.682Z,93.80
2022-12-07T22:04:40.775Z,93.31
2022-12-07T22:07:25.533Z,93.07
2022-12-07T22:10:10.289Z,93.22
2022-12-07T22:12:55.447Z,93.51
2022-12-07T22:15:41.593Z,93.82
2022-12-07T22:18:24.646Z,93.04
2022-12-07T22:21:07.988Z,92.72
2022-12-07T22:23:53.911Z,92.31
2022-12-07T22:26:37.030Z,92.12
2022-12-07T22:29:21.065Z,92.35
2022-12-07T22:32:24.690Z,92.12
2022-12-07T22:35:07.767Z,91.45
2022-12-07T22:37:50.836Z,92.06
2022-12-07T22:40:35.345Z,92.06
2022-12-07T22:43:19.035Z,91.92
2022-12-07T22:46:02.524Z,91.37
2022-12-07T22:48:46.068Z,90.80
2022-12-07T22:51:31.099Z,89.93
2022-12-07T22:54:16.926Z,89.59
2022-12-07T22:57:01.358Z,91.16
2022-12-07T22:59:44.454Z,90.92
2022-12-07T23:02:27.880Z,90.69
2022-12-07T23:05:11.634Z,90.93
2022-12-07T23:07:54.782Z,91.25
2022-12-07T23:10:38.043Z,89.70
2022-12-07T23:13:39.528Z,89.44
2022-12-07T23:16:25.461Z,90.24
2022-12-07T23:19:09.052Z,90.47
2022-12-07T23:21:52.385Z,90.48
2022-12-07T23:24:35.759Z,90.78
2022-12-07T23:27:20.894Z,90.92
2022-12-07T23:30:06.399Z,91.28
2022-12-07T23:32:49.648Z,90.62
2022-12-07T23:35:32.943Z,89.43
2022-12-07T23:38:16.000Z,88.59
2022-12-07T23:40:59.106Z,89.07
2022-12-07T23:43:43.512Z,90.35
2022-12-07T23:46:31.505Z,91.27
2022-12-07T23:49:14.640Z,91.56
2022-12-07T23:51:58.478Z,91.55
2022-12-07T23:54:42.011Z,92.01
2022-12-07T23:57:25.103Z,90.82
